sensor_id;sensor_type;location;lat;lon;timestamp;P1;durP1;ratioP1;P2;durP2;ratioP2
56752;SDS011;42627;42.646;23.642;2023-03-16T00:00:47;6.03;;;1.10;;
56752;SDS011;42627;42.646;23.642;2023-03-16T00:05:48;1.48;;;1.10;;
56752;SDS011;42627;42.646;23.642;2023-03-16T00:07:50;3.85;;;0.93;;
56752;SDS011;42627;42.646;23.642;2023-03-16T00:09:51;3.97;;;1.05;;
56752;SDS011;42627;42.646;23.642;2023-03-16T00:12:02;0.98;;;0.75;;
56752;SDS011;42627;42.646;23.642;2023-03-16T00:14:08;1.65;;;0.80;;
56752;SDS011;42627;42.646;23.642;2023-03-16T00:16:10;1.42;;;0.70;;
56752;SDS011;42627;42.646;23.642;2023-03-16T00:18:16;1.77;;;0.73;;
56752;SDS011;42627;42.646;23.642;2023-03-16T00:20:17;1.02;;;0.77;;
56752;SDS011;42627;42.646;23.642;2023-03-16T00:22:18;1.90;;;0.75;;
56752;SDS011;42627;42.646;23.642;2023-03-16T00:24:19;1.38;;;0.70;;
56752;SDS011;42627;42.646;23.642;2023-03-16T00:26:19;0.90;;;0.70;;
56752;SDS011;42627;42.646;23.642;2023-03-16T00:28:21;2.25;;;1.00;;
56752;SDS011;42627;42.646;23.642;2023-03-16T00:30:31;1.92;;;0.82;;
56752;SDS011;42627;42.646;23.642;2023-03-16T00:32:34;1.05;;;0.95;;
56752;SDS011;42627;42.646;23.642;2023-03-16T00:34:36;0.80;;;0.80;;
56752;SDS011;42627;42.646;23.642;2023-03-16T00:36:36;1.42;;;1.10;;
56752;SDS011;42627;42.646;23.642;2023-03-16T00:38:38;2.22;;;0.70;;
56752;SDS011;42627;42.646;23.642;2023-03-16T00:40:45;1.73;;;0.90;;
56752;SDS011;42627;42.646;23.642;2023-03-16T00:45:36;1.33;;;1.00;;
56752;SDS011;42627;42.646;23.642;2023-03-16T00:47:36;1.08;;;0.88;;
56752;SDS011;42627;42.646;23.642;2023-03-16T00:49:37;2.38;;;1.20;;
56752;SDS011;42627;42.646;23.642;2023-03-16T00:51:38;1.77;;;1.20;;
56752;SDS011;42627;42.646;23.642;2023-03-16T00:53:39;1.50;;;1.10;;
56752;SDS011;42627;42.646;23.642;2023-03-16T00:55:41;2.65;;;1.30;;
56752;SDS011;42627;42.646;23.642;2023-03-16T00:57:42;1.50;;;1.20;;
56752;SDS011;42627;42.646;23.642;2023-03-16T00:59:48;3.25;;;1.33;;
56752;SDS011;42627;42.646;23.642;2023-03-16T01:01:49;1.60;;;1.15;;
56752;SDS011;42627;42.646;23.642;2023-03-16T01:03:51;1.70;;;1.08;;
56752;SDS011;42627;42.646;23.642;2023-03-16T01:05:53;1.60;;;1.25;;
56752;SDS011;42627;42.646;23.642;2023-03-16T01:07:58;1.75;;;1.20;;
56752;SDS011;42627;42.646;23.642;2023-03-16T01:12:24;1.60;;;1.10;;
56752;SDS011;42627;42.646;23.642;2023-03-16T01:14:26;1.95;;;1.20;;
56752;SDS011;42627;42.646;23.642;2023-03-16T01:16:27;2.58;;;1.25;;
56752;SDS011;42627;42.646;23.642;2023-03-16T01:18:27;1.95;;;1.30;;
56752;SDS011;42627;42.646;23.642;2023-03-16T01:20:28;3.55;;;1.33;;
56752;SDS011;42627;42.646;23.642;2023-03-16T01:22:29;2.80;;;1.23;;
56752;SDS011;42627;42.646;23.642;2023-03-16T01:24:32;1.83;;;1.30;;
56752;SDS011;42627;42.646;23.642;2023-03-16T01:26:36;1.75;;;1.10;;
56752;SDS011;42627;42.646;23.642;2023-03-16T01:28:37;2.15;;;1.10;;
56752;SDS011;42627;42.646;23.642;2023-03-16T01:30:38;2.28;;;1.05;;
56752;SDS011;42627;42.646;23.642;2023-03-16T01:32:39;2.33;;;1.42;;
56752;SDS011;42627;42.646;23.642;2023-03-16T01:34:40;2.30;;;1.23;;
56752;SDS011;42627;42.646;23.642;2023-03-16T01:36:41;0.93;;;0.80;;
56752;SDS011;42627;42.646;23.642;2023-03-16T01:38:43;3.10;;;1.15;;
56752;SDS011;42627;42.646;23.642;2023-03-16T01:41:03;4.70;;;1.33;;
56752;SDS011;42627;42.646;23.642;2023-03-16T01:43:17;1.98;;;1.27;;
56752;SDS011;42627;42.646;23.642;2023-03-16T01:48:05;1.70;;;1.10;;
56752;SDS011;42627;42.646;23.642;2023-03-16T01:50:06;1.35;;;0.80;;
56752;SDS011;42627;42.646;23.642;2023-03-16T01:52:09;2.13;;;1.40;;
56752;SDS011;42627;42.646;23.642;2023-03-16T01:56:19;3.03;;;1.10;;
56752;SDS011;42627;42.646;23.642;2023-03-16T01:58:26;1.80;;;1.20;;
56752;SDS011;42627;42.646;23.642;2023-03-16T02:00:28;1.60;;;1.05;;
56752;SDS011;42627;42.646;23.642;2023-03-16T02:02:31;1.60;;;1.15;;
56752;SDS011;42627;42.646;23.642;2023-03-16T02:04:38;1.98;;;1.20;;
56752;SDS011;42627;42.646;23.642;2023-03-16T02:06:44;1.70;;;1.13;;
56752;SDS011;42627;42.646;23.642;2023-03-16T02:08:46;1.42;;;0.90;;
56752;SDS011;42627;42.646;23.642;2023-03-16T02:10:48;1.20;;;1.08;;
56752;SDS011;42627;42.646;23.642;2023-03-16T02:12:53;1.52;;;1.10;;
56752;SDS011;42627;42.646;23.642;2023-03-16T02:15:00;1.38;;;0.95;;
56752;SDS011;42627;42.646;23.642;2023-03-16T02:17:03;1.92;;;1.10;;
56752;SDS011;42627;42.646;23.642;2023-03-16T02:19:15;1.95;;;1.13;;
56752;SDS011;42627;42.646;23.642;2023-03-16T02:21:40;2.30;;;1.10;;
56752;SDS011;42627;42.646;23.642;2023-03-16T02:23:48;2.50;;;1.13;;
56752;SDS011;42627;42.646;23.642;2023-03-16T02:30:24;1.50;;;1.00;;
56752;SDS011;42627;42.646;23.642;2023-03-16T02:32:25;0.80;;;0.68;;
56752;SDS011;42627;42.646;23.642;2023-03-16T02:34:34;0.65;;;0.63;;
56752;SDS011;42627;42.646;23.642;2023-03-16T02:36:35;1.00;;;0.95;;
56752;SDS011;42627;42.646;23.642;2023-03-16T02:38:37;1.65;;;0.90;;
56752;SDS011;42627;42.646;23.642;2023-03-16T02:40:38;1.50;;;0.70;;
56752;SDS011;42627;42.646;23.642;2023-03-16T02:42:38;1.85;;;1.20;;
56752;SDS011;42627;42.646;23.642;2023-03-16T02:44:46;0.77;;;0.73;;
56752;SDS011;42627;42.646;23.642;2023-03-16T02:46:57;1.33;;;0.93;;
56752;SDS011;42627;42.646;23.642;2023-03-16T02:51:20;1.83;;;1.30;;
56752;SDS011;42627;42.646;23.642;2023-03-16T02:53:20;1.70;;;0.98;;
56752;SDS011;42627;42.646;23.642;2023-03-16T02:55:21;1.48;;;0.82;;
56752;SDS011;42627;42.646;23.642;2023-03-16T02:57:22;1.23;;;1.02;;
56752;SDS011;42627;42.646;23.642;2023-03-16T02:59:22;2.00;;;1.17;;
56752;SDS011;42627;42.646;23.642;2023-03-16T03:01:23;1.73;;;1.23;;
56752;SDS011;42627;42.646;23.642;2023-03-16T03:03:29;1.85;;;1.17;;
56752;SDS011;42627;42.646;23.642;2023-03-16T03:05:33;1.50;;;0.90;;
56752;SDS011;42627;42.646;23.642;2023-03-16T03:07:34;1.30;;;0.98;;
56752;SDS011;42627;42.646;23.642;2023-03-16T03:09:34;2.50;;;0.93;;
56752;SDS011;42627;42.646;23.642;2023-03-16T03:11:35;1.80;;;1.25;;
56752;SDS011;42627;42.646;23.642;2023-03-16T03:13:40;1.73;;;1.00;;
56752;SDS011;42627;42.646;23.642;2023-03-16T03:17:59;2.55;;;1.35;;
56752;SDS011;42627;42.646;23.642;2023-03-16T03:20:00;1.88;;;0.98;;
56752;SDS011;42627;42.646;23.642;2023-03-16T03:22:12;3.33;;;1.17;;
56752;SDS011;42627;42.646;23.642;2023-03-16T03:24:17;0.95;;;0.73;;
56752;SDS011;42627;42.646;23.642;2023-03-16T03:26:18;1.80;;;1.00;;
56752;SDS011;42627;42.646;23.642;2023-03-16T03:28:19;3.20;;;1.10;;
56752;SDS011;42627;42.646;23.642;2023-03-16T03:30:22;2.17;;;1.00;;
56752;SDS011;42627;42.646;23.642;2023-03-16T03:32:23;1.67;;;0.80;;
56752;SDS011;42627;42.646;23.642;2023-03-16T03:34:25;1.38;;;0.70;;
56752;SDS011;42627;42.646;23.642;2023-03-16T03:36:26;2.35;;;1.25;;
56752;SDS011;42627;42.646;23.642;2023-03-16T03:38:27;2.17;;;1.30;;
56752;SDS011;42627;42.646;23.642;2023-03-16T03:40:28;2.25;;;1.23;;
56752;SDS011;42627;42.646;23.642;2023-03-16T03:42:28;1.67;;;1.00;;
56752;SDS011;42627;42.646;23.642;2023-03-16T03:44:38;1.42;;;1.20;;
56752;SDS011;42627;42.646;23.642;2023-03-16T03:46:44;2.63;;;1.55;;
56752;SDS011;42627;42.646;23.642;2023-03-16T03:48:45;3.05;;;1.85;;
56752;SDS011;42627;42.646;23.642;2023-03-16T03:50:46;8.70;;;2.58;;
56752;SDS011;42627;42.646;23.642;2023-03-16T03:52:47;4.25;;;2.00;;
56752;SDS011;42627;42.646;23.642;2023-03-16T03:54:47;4.70;;;1.88;;
56752;SDS011;42627;42.646;23.642;2023-03-16T03:56:48;4.65;;;1.80;;
56752;SDS011;42627;42.646;23.642;2023-03-16T03:58:50;5.43;;;1.88;;
56752;SDS011;42627;42.646;23.642;2023-03-16T04:00:50;3.92;;;1.75;;
56752;SDS011;42627;42.646;23.642;2023-03-16T04:02:54;3.85;;;1.73;;
56752;SDS011;42627;42.646;23.642;2023-03-16T04:04:54;3.63;;;1.52;;
56752;SDS011;42627;42.646;23.642;2023-03-16T04:06:55;2.38;;;1.30;;
56752;SDS011;42627;42.646;23.642;2023-03-16T04:08:56;2.78;;;1.45;;
56752;SDS011;42627;42.646;23.642;2023-03-16T04:10:56;1.67;;;1.33;;
56752;SDS011;42627;42.646;23.642;2023-03-16T04:12:58;3.08;;;1.73;;
56752;SDS011;42627;42.646;23.642;2023-03-16T04:15:02;5.10;;;2.00;;
56752;SDS011;42627;42.646;23.642;2023-03-16T04:19:25;3.53;;;1.45;;
56752;SDS011;42627;42.646;23.642;2023-03-16T04:21:26;1.58;;;1.10;;
56752;SDS011;42627;42.646;23.642;2023-03-16T04:23:26;2.67;;;1.30;;
56752;SDS011;42627;42.646;23.642;2023-03-16T04:25:27;3.28;;;1.23;;
56752;SDS011;42627;42.646;23.642;2023-03-16T04:27:29;2.28;;;1.33;;
56752;SDS011;42627;42.646;23.642;2023-03-16T04:29:35;2.13;;;1.02;;
56752;SDS011;42627;42.646;23.642;2023-03-16T04:31:35;1.98;;;1.20;;
56752;SDS011;42627;42.646;23.642;2023-03-16T04:33:37;2.00;;;1.20;;
56752;SDS011;42627;42.646;23.642;2023-03-16T04:35:38;3.47;;;0.98;;
56752;SDS011;42627;42.646;23.642;2023-03-16T04:37:40;1.73;;;1.17;;
56752;SDS011;42627;42.646;23.642;2023-03-16T04:39:41;1.42;;;0.85;;
56752;SDS011;42627;42.646;23.642;2023-03-16T04:41:43;2.08;;;1.17;;
56752;SDS011;42627;42.646;23.642;2023-03-16T04:43:47;2.67;;;1.20;;
56752;SDS011;42627;42.646;23.642;2023-03-16T04:46:01;2.28;;;1.13;;
56752;SDS011;42627;42.646;23.642;2023-03-16T04:48:05;3.25;;;1.40;;
56752;SDS011;42627;42.646;23.642;2023-03-16T04:50:06;7.10;;;2.70;;
56752;SDS011;42627;42.646;23.642;2023-03-16T04:52:08;5.28;;;2.10;;
56752;SDS011;42627;42.646;23.642;2023-03-16T04:54:09;3.90;;;1.75;;
56752;SDS011;42627;42.646;23.642;2023-03-16T04:56:10;3.10;;;1.63;;
56752;SDS011;42627;42.646;23.642;2023-03-16T04:58:18;2.85;;;1.55;;
56752;SDS011;42627;42.646;23.642;2023-03-16T05:00:19;3.53;;;1.65;;
56752;SDS011;42627;42.646;23.642;2023-03-16T05:04:31;4.60;;;2.33;;
56752;SDS011;42627;42.646;23.642;2023-03-16T05:06:31;3.53;;;2.20;;
56752;SDS011;42627;42.646;23.642;2023-03-16T05:08:32;3.03;;;1.50;;
56752;SDS011;42627;42.646;23.642;2023-03-16T05:10:33;2.22;;;1.25;;
56752;SDS011;42627;42.646;23.642;2023-03-16T05:12:39;2.30;;;1.30;;
56752;SDS011;42627;42.646;23.642;2023-03-16T05:14:58;3.58;;;1.63;;
56752;SDS011;42627;42.646;23.642;2023-03-16T05:17:17;2.33;;;1.50;;
56752;SDS011;42627;42.646;23.642;2023-03-16T05:19:18;2.33;;;1.33;;
56752;SDS011;42627;42.646;23.642;2023-03-16T05:21:19;3.17;;;1.45;;
56752;SDS011;42627;42.646;23.642;2023-03-16T05:23:19;2.97;;;1.27;;
56752;SDS011;42627;42.646;23.642;2023-03-16T05:25:20;2.83;;;1.50;;
56752;SDS011;42627;42.646;23.642;2023-03-16T05:27:21;2.00;;;1.15;;
56752;SDS011;42627;42.646;23.642;2023-03-16T05:29:28;3.67;;;1.27;;
56752;SDS011;42627;42.646;23.642;2023-03-16T05:31:30;2.20;;;1.48;;
56752;SDS011;42627;42.646;23.642;2023-03-16T05:33:35;9.43;;;2.22;;
56752;SDS011;42627;42.646;23.642;2023-03-16T05:35:36;2.30;;;1.42;;
56752;SDS011;42627;42.646;23.642;2023-03-16T05:37:37;2.90;;;1.80;;
56752;SDS011;42627;42.646;23.642;2023-03-16T05:39:40;2.25;;;1.00;;
56752;SDS011;42627;42.646;23.642;2023-03-16T05:41:42;1.67;;;1.05;;
56752;SDS011;42627;42.646;23.642;2023-03-16T05:43:43;4.40;;;1.70;;
56752;SDS011;42627;42.646;23.642;2023-03-16T05:45:44;6.13;;;2.03;;
56752;SDS011;42627;42.646;23.642;2023-03-16T05:47:54;6.53;;;1.88;;
56752;SDS011;42627;42.646;23.642;2023-03-16T05:52:20;7.60;;;3.17;;
56752;SDS011;42627;42.646;23.642;2023-03-16T05:54:20;8.13;;;3.10;;
56752;SDS011;42627;42.646;23.642;2023-03-16T05:56:25;7.85;;;3.38;;
56752;SDS011;42627;42.646;23.642;2023-03-16T05:58:27;10.18;;;3.22;;
56752;SDS011;42627;42.646;23.642;2023-03-16T06:00:28;6.65;;;2.53;;
56752;SDS011;42627;42.646;23.642;2023-03-16T06:02:29;6.72;;;2.50;;
56752;SDS011;42627;42.646;23.642;2023-03-16T06:04:30;17.48;;;4.70;;
56752;SDS011;42627;42.646;23.642;2023-03-16T06:08:41;26.35;;;5.68;;
56752;SDS011;42627;42.646;23.642;2023-03-16T06:10:42;35.53;;;7.50;;
56752;SDS011;42627;42.646;23.642;2023-03-16T06:12:43;32.10;;;6.90;;
56752;SDS011;42627;42.646;23.642;2023-03-16T06:14:44;10.05;;;4.53;;
56752;SDS011;42627;42.646;23.642;2023-03-16T06:16:53;31.40;;;9.15;;
56752;SDS011;42627;42.646;23.642;2023-03-16T06:21:16;4.45;;;1.48;;
56752;SDS011;42627;42.646;23.642;2023-03-16T06:23:19;4.80;;;1.65;;
56752;SDS011;42627;42.646;23.642;2023-03-16T06:25:20;3.08;;;1.70;;
56752;SDS011;42627;42.646;23.642;2023-03-16T06:27:21;6.05;;;1.63;;
56752;SDS011;42627;42.646;23.642;2023-03-16T06:29:25;7.47;;;2.78;;
56752;SDS011;42627;42.646;23.642;2023-03-16T06:31:26;9.57;;;3.65;;
56752;SDS011;42627;42.646;23.642;2023-03-16T06:33:26;9.65;;;3.63;;
56752;SDS011;42627;42.646;23.642;2023-03-16T06:35:27;7.13;;;3.22;;
56752;SDS011;42627;42.646;23.642;2023-03-16T06:37:28;4.93;;;3.58;;
56752;SDS011;42627;42.646;23.642;2023-03-16T06:39:30;3.10;;;1.83;;
56752;SDS011;42627;42.646;23.642;2023-03-16T06:41:33;5.13;;;1.98;;
56752;SDS011;42627;42.646;23.642;2023-03-16T06:43:34;3.35;;;2.03;;
56752;SDS011;42627;42.646;23.642;2023-03-16T06:45:35;3.03;;;1.83;;
56752;SDS011;42627;42.646;23.642;2023-03-16T06:47:36;5.70;;;1.98;;
56752;SDS011;42627;42.646;23.642;2023-03-16T06:49:37;5.65;;;2.42;;
56752;SDS011;42627;42.646;23.642;2023-03-16T06:51:37;10.52;;;3.63;;
56752;SDS011;42627;42.646;23.642;2023-03-16T06:53:38;8.25;;;3.13;;
56752;SDS011;42627;42.646;23.642;2023-03-16T06:55:40;2.85;;;1.70;;
56752;SDS011;42627;42.646;23.642;2023-03-16T06:57:41;5.50;;;2.55;;
56752;SDS011;42627;42.646;23.642;2023-03-16T06:59:42;3.28;;;1.88;;
56752;SDS011;42627;42.646;23.642;2023-03-16T07:01:42;4.68;;;2.83;;
56752;SDS011;42627;42.646;23.642;2023-03-16T07:03:44;3.35;;;1.92;;
56752;SDS011;42627;42.646;23.642;2023-03-16T07:05:45;5.35;;;2.45;;
56752;SDS011;42627;42.646;23.642;2023-03-16T07:07:46;3.75;;;1.70;;
56752;SDS011;42627;42.646;23.642;2023-03-16T07:09:46;5.10;;;2.03;;
56752;SDS011;42627;42.646;23.642;2023-03-16T07:11:47;5.22;;;2.58;;
56752;SDS011;42627;42.646;23.642;2023-03-16T07:13:48;8.52;;;2.20;;
56752;SDS011;42627;42.646;23.642;2023-03-16T07:15:49;3.58;;;2.03;;
56752;SDS011;42627;42.646;23.642;2023-03-16T07:17:51;2.33;;;1.52;;
56752;SDS011;42627;42.646;23.642;2023-03-16T07:19:52;4.28;;;2.33;;
56752;SDS011;42627;42.646;23.642;2023-03-16T07:21:52;7.25;;;1.90;;
56752;SDS011;42627;42.646;23.642;2023-03-16T07:23:53;8.52;;;2.50;;
56752;SDS011;42627;42.646;23.642;2023-03-16T07:25:54;12.82;;;5.80;;
56752;SDS011;42627;42.646;23.642;2023-03-16T07:27:55;9.82;;;3.78;;
56752;SDS011;42627;42.646;23.642;2023-03-16T07:29:56;12.73;;;5.00;;
56752;SDS011;42627;42.646;23.642;2023-03-16T07:31:58;14.02;;;5.65;;
56752;SDS011;42627;42.646;23.642;2023-03-16T07:33:59;7.72;;;4.07;;
56752;SDS011;42627;42.646;23.642;2023-03-16T07:36:01;6.25;;;2.70;;
56752;SDS011;42627;42.646;23.642;2023-03-16T07:38:05;3.83;;;1.58;;
56752;SDS011;42627;42.646;23.642;2023-03-16T07:40:06;7.68;;;3.45;;
56752;SDS011;42627;42.646;23.642;2023-03-16T07:42:08;6.25;;;2.60;;
56752;SDS011;42627;42.646;23.642;2023-03-16T07:44:09;3.50;;;1.95;;
56752;SDS011;42627;42.646;23.642;2023-03-16T07:46:10;3.72;;;2.45;;
56752;SDS011;42627;42.646;23.642;2023-03-16T07:48:14;7.32;;;2.75;;
56752;SDS011;42627;42.646;23.642;2023-03-16T07:50:14;4.78;;;2.88;;
56752;SDS011;42627;42.646;23.642;2023-03-16T07:52:18;4.97;;;2.63;;
56752;SDS011;42627;42.646;23.642;2023-03-16T07:54:18;4.43;;;2.75;;
56752;SDS011;42627;42.646;23.642;2023-03-16T07:56:19;5.63;;;2.20;;
56752;SDS011;42627;42.646;23.642;2023-03-16T07:58:20;3.80;;;1.98;;
56752;SDS011;42627;42.646;23.642;2023-03-16T08:00:21;5.97;;;2.13;;
56752;SDS011;42627;42.646;23.642;2023-03-16T08:02:23;4.63;;;2.40;;
56752;SDS011;42627;42.646;23.642;2023-03-16T08:04:23;5.72;;;2.05;;
56752;SDS011;42627;42.646;23.642;2023-03-16T08:06:24;9.70;;;3.00;;
56752;SDS011;42627;42.646;23.642;2023-03-16T08:08:25;7.70;;;3.65;;
56752;SDS011;42627;42.646;23.642;2023-03-16T08:10:26;5.80;;;3.08;;
56752;SDS011;42627;42.646;23.642;2023-03-16T08:12:27;6.45;;;3.05;;
56752;SDS011;42627;42.646;23.642;2023-03-16T08:14:27;5.15;;;2.92;;
56752;SDS011;42627;42.646;23.642;2023-03-16T08:16:28;8.27;;;4.05;;
56752;SDS011;42627;42.646;23.642;2023-03-16T08:18:30;7.45;;;3.10;;
56752;SDS011;42627;42.646;23.642;2023-03-16T08:20:31;6.65;;;3.17;;
56752;SDS011;42627;42.646;23.642;2023-03-16T08:22:32;9.50;;;3.00;;
56752;SDS011;42627;42.646;23.642;2023-03-16T08:24:35;9.23;;;3.08;;
56752;SDS011;42627;42.646;23.642;2023-03-16T08:26:36;5.05;;;2.63;;
56752;SDS011;42627;42.646;23.642;2023-03-16T08:28:37;7.38;;;2.60;;
56752;SDS011;42627;42.646;23.642;2023-03-16T08:30:42;22.73;;;3.42;;
56752;SDS011;42627;42.646;23.642;2023-03-16T08:32:44;8.93;;;3.25;;
56752;SDS011;42627;42.646;23.642;2023-03-16T08:34:45;4.20;;;1.92;;
56752;SDS011;42627;42.646;23.642;2023-03-16T08:36:46;12.85;;;4.13;;
56752;SDS011;42627;42.646;23.642;2023-03-16T08:38:47;14.82;;;3.45;;
56752;SDS011;42627;42.646;23.642;2023-03-16T08:40:49;15.27;;;5.30;;
56752;SDS011;42627;42.646;23.642;2023-03-16T08:42:51;9.77;;;3.47;;
56752;SDS011;42627;42.646;23.642;2023-03-16T08:44:54;9.43;;;3.55;;
56752;SDS011;42627;42.646;23.642;2023-03-16T08:46:54;11.70;;;3.95;;
56752;SDS011;42627;42.646;23.642;2023-03-16T08:48:55;9.98;;;3.67;;
56752;SDS011;42627;42.646;23.642;2023-03-16T08:50:56;9.20;;;3.88;;
56752;SDS011;42627;42.646;23.642;2023-03-16T08:52:59;15.65;;;5.43;;
56752;SDS011;42627;42.646;23.642;2023-03-16T08:55:02;16.60;;;6.53;;
56752;SDS011;42627;42.646;23.642;2023-03-16T08:57:04;28.77;;;9.32;;
56752;SDS011;42627;42.646;23.642;2023-03-16T08:59:05;18.98;;;6.90;;
56752;SDS011;42627;42.646;23.642;2023-03-16T09:01:06;12.70;;;4.25;;
56752;SDS011;42627;42.646;23.642;2023-03-16T09:03:08;4.85;;;2.42;;
56752;SDS011;42627;42.646;23.642;2023-03-16T09:05:11;3.20;;;2.03;;
56752;SDS011;42627;42.646;23.642;2023-03-16T09:07:13;8.80;;;2.65;;
56752;SDS011;42627;42.646;23.642;2023-03-16T09:09:14;5.82;;;2.90;;
56752;SDS011;42627;42.646;23.642;2023-03-16T09:11:17;5.40;;;2.50;;
56752;SDS011;42627;42.646;23.642;2023-03-16T09:13:18;9.65;;;4.40;;
56752;SDS011;42627;42.646;23.642;2023-03-16T09:15:19;7.72;;;2.88;;
56752;SDS011;42627;42.646;23.642;2023-03-16T09:17:20;5.68;;;1.88;;
56752;SDS011;42627;42.646;23.642;2023-03-16T09:19:21;4.20;;;2.13;;
56752;SDS011;42627;42.646;23.642;2023-03-16T09:21:22;2.20;;;1.42;;
56752;SDS011;42627;42.646;23.642;2023-03-16T09:23:23;4.35;;;2.40;;
56752;SDS011;42627;42.646;23.642;2023-03-16T09:25:25;6.88;;;2.70;;
56752;SDS011;42627;42.646;23.642;2023-03-16T09:27:26;4.18;;;1.70;;
56752;SDS011;42627;42.646;23.642;2023-03-16T09:29:27;5.82;;;1.98;;
56752;SDS011;42627;42.646;23.642;2023-03-16T09:31:28;3.95;;;2.35;;
56752;SDS011;42627;42.646;23.642;2023-03-16T09:33:29;4.80;;;2.00;;
56752;SDS011;42627;42.646;23.642;2023-03-16T09:35:34;3.63;;;2.08;;
56752;SDS011;42627;42.646;23.642;2023-03-16T09:37:36;5.80;;;1.70;;
56752;SDS011;42627;42.646;23.642;2023-03-16T09:39:37;5.60;;;2.10;;
56752;SDS011;42627;42.646;23.642;2023-03-16T09:41:46;2.33;;;1.42;;
56752;SDS011;42627;42.646;23.642;2023-03-16T09:43:59;2.88;;;1.70;;
56752;SDS011;42627;42.646;23.642;2023-03-16T09:48:25;2.22;;;1.65;;
56752;SDS011;42627;42.646;23.642;2023-03-16T09:50:30;3.38;;;1.65;;
56752;SDS011;42627;42.646;23.642;2023-03-16T09:54:41;4.47;;;2.22;;
56752;SDS011;42627;42.646;23.642;2023-03-16T09:56:46;3.17;;;1.85;;
56752;SDS011;42627;42.646;23.642;2023-03-16T09:58:49;4.90;;;2.10;;
56752;SDS011;42627;42.646;23.642;2023-03-16T10:05:30;4.80;;;1.88;;
56752;SDS011;42627;42.646;23.642;2023-03-16T10:07:36;3.25;;;1.70;;
56752;SDS011;42627;42.646;23.642;2023-03-16T10:11:43;4.28;;;2.45;;
56752;SDS011;42627;42.646;23.642;2023-03-16T10:13:47;3.78;;;2.58;;
56752;SDS011;42627;42.646;23.642;2023-03-16T10:15:50;4.38;;;2.38;;
56752;SDS011;42627;42.646;23.642;2023-03-16T10:17:54;2.33;;;1.70;;
56752;SDS011;42627;42.646;23.642;2023-03-16T10:19:58;2.47;;;1.60;;
56752;SDS011;42627;42.646;23.642;2023-03-16T10:21:59;1.45;;;1.10;;
56752;SDS011;42627;42.646;23.642;2023-03-16T10:24:02;6.57;;;3.05;;
56752;SDS011;42627;42.646;23.642;2023-03-16T10:26:08;8.45;;;3.97;;
56752;SDS011;42627;42.646;23.642;2023-03-16T10:28:12;9.77;;;2.60;;
56752;SDS011;42627;42.646;23.642;2023-03-16T10:32:18;6.80;;;3.30;;
56752;SDS011;42627;42.646;23.642;2023-03-16T10:34:19;7.28;;;2.97;;
56752;SDS011;42627;42.646;23.642;2023-03-16T10:36:24;7.45;;;3.45;;
56752;SDS011;42627;42.646;23.642;2023-03-16T10:40:37;4.28;;;1.58;;
56752;SDS011;42627;42.646;23.642;2023-03-16T10:42:39;5.22;;;2.75;;
56752;SDS011;42627;42.646;23.642;2023-03-16T10:44:40;6.13;;;2.38;;
56752;SDS011;42627;42.646;23.642;2023-03-16T10:46:56;3.72;;;1.90;;
56752;SDS011;42627;42.646;23.642;2023-03-16T10:48:58;4.30;;;1.90;;
56752;SDS011;42627;42.646;23.642;2023-03-16T10:51:01;4.75;;;2.22;;
56752;SDS011;42627;42.646;23.642;2023-03-16T10:53:03;3.90;;;1.92;;
56752;SDS011;42627;42.646;23.642;2023-03-16T10:55:14;5.13;;;2.10;;
56752;SDS011;42627;42.646;23.642;2023-03-16T10:57:23;3.15;;;1.98;;
56752;SDS011;42627;42.646;23.642;2023-03-16T10:59:29;4.88;;;2.75;;
56752;SDS011;42627;42.646;23.642;2023-03-16T11:01:31;2.70;;;1.90;;
56752;SDS011;42627;42.646;23.642;2023-03-16T11:03:37;4.30;;;1.77;;
56752;SDS011;42627;42.646;23.642;2023-03-16T11:05:38;4.82;;;1.77;;
56752;SDS011;42627;42.646;23.642;2023-03-16T11:07:46;3.83;;;1.92;;
56752;SDS011;42627;42.646;23.642;2023-03-16T11:09:47;2.88;;;1.50;;
56752;SDS011;42627;42.646;23.642;2023-03-16T11:11:48;2.70;;;1.20;;
56752;SDS011;42627;42.646;23.642;2023-03-16T11:13:49;3.00;;;2.03;;
56752;SDS011;42627;42.646;23.642;2023-03-16T11:20:03;3.08;;;1.77;;
56752;SDS011;42627;42.646;23.642;2023-03-16T11:22:18;3.78;;;1.58;;
56752;SDS011;42627;42.646;23.642;2023-03-16T11:24:24;2.97;;;1.35;;
56752;SDS011;42627;42.646;23.642;2023-03-16T11:26:32;3.92;;;2.03;;
56752;SDS011;42627;42.646;23.642;2023-03-16T11:28:35;3.88;;;2.38;;
56752;SDS011;42627;42.646;23.642;2023-03-16T11:30:41;3.15;;;1.38;;
56752;SDS011;42627;42.646;23.642;2023-03-16T11:32:49;3.08;;;2.05;;
56752;SDS011;42627;42.646;23.642;2023-03-16T11:34:52;3.00;;;1.70;;
56752;SDS011;42627;42.646;23.642;2023-03-16T11:37:57;2.67;;;1.45;;
56752;SDS011;42627;42.646;23.642;2023-03-16T11:43:51;5.40;;;2.35;;
56752;SDS011;42627;42.646;23.642;2023-03-16T11:48:14;2.50;;;1.65;;
56752;SDS011;42627;42.646;23.642;2023-03-16T11:53:28;2.50;;;1.33;;
56752;SDS011;42627;42.646;23.642;2023-03-16T11:59:54;4.32;;;2.60;;
56752;SDS011;42627;42.646;23.642;2023-03-16T12:12:54;4.57;;;2.85;;
56752;SDS011;42627;42.646;23.642;2023-03-16T12:17:19;9.20;;;3.35;;
56752;SDS011;42627;42.646;23.642;2023-03-16T12:22:36;5.07;;;2.03;;
56752;SDS011;42627;42.646;23.642;2023-03-16T12:24:40;4.82;;;2.22;;
56752;SDS011;42627;42.646;23.642;2023-03-16T12:26:42;3.95;;;1.75;;
56752;SDS011;42627;42.646;23.642;2023-03-16T12:28:43;3.78;;;2.13;;
56752;SDS011;42627;42.646;23.642;2023-03-16T12:33:00;5.63;;;2.45;;
56752;SDS011;42627;42.646;23.642;2023-03-16T12:37:31;5.68;;;2.30;;
56752;SDS011;42627;42.646;23.642;2023-03-16T12:46:23;5.63;;;3.08;;
56752;SDS011;42627;42.646;23.642;2023-03-16T12:48:48;4.97;;;2.42;;
56752;SDS011;42627;42.646;23.642;2023-03-16T12:55:52;9.50;;;3.55;;
56752;SDS011;42627;42.646;23.642;2023-03-16T12:58:00;6.45;;;3.10;;
56752;SDS011;42627;42.646;23.642;2023-03-16T13:00:02;6.25;;;3.30;;
56752;SDS011;42627;42.646;23.642;2023-03-16T13:02:14;7.03;;;3.55;;
56752;SDS011;42627;42.646;23.642;2023-03-16T13:04:20;7.68;;;3.63;;
56752;SDS011;42627;42.646;23.642;2023-03-16T13:08:26;6.72;;;3.80;;
56752;SDS011;42627;42.646;23.642;2023-03-16T13:10:28;6.68;;;3.38;;
56752;SDS011;42627;42.646;23.642;2023-03-16T13:12:32;8.68;;;3.90;;
56752;SDS011;42627;42.646;23.642;2023-03-16T13:14:37;7.68;;;3.47;;
56752;SDS011;42627;42.646;23.642;2023-03-16T13:19:26;5.90;;;3.50;;
56752;SDS011;42627;42.646;23.642;2023-03-16T13:21:43;5.05;;;3.25;;
56752;SDS011;42627;42.646;23.642;2023-03-16T13:23:46;6.10;;;3.75;;
56752;SDS011;42627;42.646;23.642;2023-03-16T13:26:08;6.95;;;3.58;;
56752;SDS011;42627;42.646;23.642;2023-03-16T13:28:14;9.85;;;4.85;;
56752;SDS011;42627;42.646;23.642;2023-03-16T13:30:23;8.38;;;3.40;;
56752;SDS011;42627;42.646;23.642;2023-03-16T13:32:26;7.97;;;4.32;;
56752;SDS011;42627;42.646;23.642;2023-03-16T13:34:30;9.20;;;4.32;;
56752;SDS011;42627;42.646;23.642;2023-03-16T13:36:41;9.07;;;4.78;;
56752;SDS011;42627;42.646;23.642;2023-03-16T13:38:53;12.75;;;6.53;;
56752;SDS011;42627;42.646;23.642;2023-03-16T13:40:56;8.93;;;5.22;;
56752;SDS011;42627;42.646;23.642;2023-03-16T13:43:01;8.38;;;4.25;;
56752;SDS011;42627;42.646;23.642;2023-03-16T13:45:09;8.43;;;4.18;;
56752;SDS011;42627;42.646;23.642;2023-03-16T13:49:57;10.93;;;4.18;;
56752;SDS011;42627;42.646;23.642;2023-03-16T13:51:58;8.63;;;4.65;;
56752;SDS011;42627;42.646;23.642;2023-03-16T13:54:03;10.95;;;5.55;;
56752;SDS011;42627;42.646;23.642;2023-03-16T13:56:25;9.15;;;4.30;;
56752;SDS011;42627;42.646;23.642;2023-03-16T13:58:29;9.88;;;4.53;;